createdAt,value
2023-01-29T00:00:30.860Z,101454.66
2023-01-29T00:02:59.210Z,101451.06
2023-01-29T00:05:29.631Z,101449.13
2023-01-29T00:07:58.643Z,101456.94
2023-01-29T00:10:27.612Z,101458.34
2023-01-29T00:12:56.291Z,101467.13
2023-01-29T00:15:27.338Z,101452.19
2023-01-29T00:17:55.780Z,101454.28
2023-01-29T00:20:24.440Z,101457.13
2023-01-29T00:22:55.529Z,101472.41
2023-01-29T00:25:26.407Z,101467.25
2023-01-29T00:28:02.211Z,101476.19
2023-01-29T00:30:30.780Z,101463.06
2023-01-29T00:32:59.104Z,101448.00
2023-01-29T00:35:27.616Z,101457.25
2023-01-29T00:37:59.564Z,101456.50
2023-01-29T00:40:28.669Z,101450.41
2023-01-29T00:43:15.799Z,101452.44
2023-01-29T00:45:44.065Z,101450.91
2023-01-29T00:48:12.482Z,101453.88
2023-01-29T00:50:40.731Z,101453.38
2023-01-29T00:53:09.055Z,101454.50
2023-01-29T00:55:37.363Z,101453.88
2023-01-29T00:58:05.668Z,101458.59
2023-01-29T01:00:34.337Z,101458.91
2023-01-29T01:05:40.826Z,101462.78
2023-01-29T01:08:29.000Z,101471.16
2023-01-29T01:11:02.259Z,101485.06
2023-01-29T01:13:32.919Z,101491.81
2023-01-29T01:16:09.819Z,101496.53
2023-01-29T01:18:38.939Z,101497.56
2023-01-29T01:21:07.524Z,101516.47
2023-01-29T01:23:36.653Z,101515.22
2023-01-29T01:26:13.506Z,101502.34
2023-01-29T01:28:41.824Z,101478.38
2023-01-29T01:31:15.120Z,101476.66
2023-01-29T01:33:43.477Z,101473.53
2023-01-29T01:36:11.787Z,101483.94
2023-01-29T01:38:45.524Z,101481.63
2023-01-29T01:41:18.838Z,101495.34
2023-01-29T01:43:53.645Z,101499.31
2023-01-29T01:46:22.890Z,101489.03
2023-01-29T01:48:59.581Z,101485.59
2023-01-29T01:51:31.946Z,101484.63
2023-01-29T01:54:03.664Z,101474.34
2023-01-29T01:56:44.665Z,101477.00
2023-01-29T01:59:20.585Z,101474.63
2023-01-29T02:01:52.460Z,101481.66
2023-01-29T02:04:45.738Z,101475.16
2023-01-29T02:07:34.433Z,101473.16
2023-01-29T02:10:15.243Z,101474.28
2023-01-29T02:12:45.868Z,101483.22
2023-01-29T02:15:14.977Z,101478.03
2023-01-29T02:17:47.142Z,101478.81
2023-01-29T02:20:26.932Z,101474.53
2023-01-29T02:23:13.462Z,101473.94
2023-01-29T02:26:11.674Z,101472.56
2023-01-29T02:28:49.919Z,101467.00
2023-01-29T02:31:49.178Z,101461.25
2023-01-29T02:34:23.266Z,101463.31
2023-01-29T02:37:26.511Z,101474.09
2023-01-29T02:40:08.981Z,101465.00
2023-01-29T02:42:54.305Z,101473.44
2023-01-29T02:45:54.455Z,101475.25
2023-01-29T02:48:26.901Z,101484.88
2023-01-29T02:51:08.554Z,101492.75
2023-01-29T02:53:53.048Z,101485.19
2023-01-29T02:56:30.314Z,101498.06
2023-01-29T02:59:18.599Z,101491.34
2023-01-29T03:01:55.810Z,101489.00
2023-01-29T03:04:36.104Z,101487.78
2023-01-29T03:07:10.941Z,101492.66
2023-01-29T03:09:48.215Z,101500.13
2023-01-29T03:12:34.951Z,101488.97
2023-01-29T03:15:17.574Z,101493.91
2023-01-29T03:18:09.880Z,101501.25
2023-01-29T03:20:49.075Z,101493.78
2023-01-29T03:23:28.179Z,101497.50
2023-01-29T03:26:19.274Z,101485.00
2023-01-29T03:29:09.796Z,101482.06
2023-01-29T03:32:02.169Z,101478.00
2023-01-29T03:34:36.060Z,101485.25
2023-01-29T03:37:10.191Z,101491.81
2023-01-29T03:39:38.543Z,101482.38
2023-01-29T03:42:19.008Z,101476.53
2023-01-29T03:45:03.821Z,101483.84
2023-01-29T03:47:41.626Z,101485.75
2023-01-29T03:50:32.432Z,101478.78
2023-01-29T03:53:27.227Z,101472.91
2023-01-29T03:56:51.826Z,101467.78
2023-01-29T03:59:58.127Z,101465.34
2023-01-29T04:02:33.125Z,101475.28
2023-01-29T04:05:10.622Z,101481.59
2023-01-29T04:07:43.166Z,101479.09
2023-01-29T04:10:18.001Z,101480.84
2023-01-29T04:12:57.547Z,101474.56
2023-01-29T04:15:30.842Z,101469.31
2023-01-29T04:17:59.351Z,101468.47
2023-01-29T04:20:27.906Z,101464.25
2023-01-29T04:22:56.488Z,101461.75
2023-01-29T04:25:30.349Z,101453.88
2023-01-29T04:28:07.627Z,101457.44
2023-01-29T04:30:35.919Z,101453.16
2023-01-29T04:33:29.566Z,101453.06
2023-01-29T04:36:37.383Z,101447.78
2023-01-29T04:39:45.984Z,101453.56
2023-01-29T04:42:30.931Z,101447.47
2023-01-29T04:45:17.726Z,101453.88
2023-01-29T04:47:51.683Z,101451.38
2023-01-29T04:50:30.876Z,101459.34
2023-01-29T04:53:10.040Z,101458.00
2023-01-29T04:56:07.385Z,101464.72
2023-01-29T04:58:48.700Z,101456.44
2023-01-29T05:01:20.775Z,101452.38
2023-01-29T05:03:55.950Z,101453.53
2023-01-29T05:06:28.333Z,101449.38
2023-01-29T05:08:57.919Z,101451.38
2023-01-29T05:11:27.000Z,101447.16
2023-01-29T05:13:56.633Z,101450.19
2023-01-29T05:16:31.913Z,101447.97
2023-01-29T05:19:00.342Z,101457.06
2023-01-29T05:21:31.476Z,101449.13
2023-01-29T05:24:15.137Z,101448.34
2023-01-29T05:27:04.216Z,101440.72
2023-01-29T05:29:34.731Z,101449.03
2023-01-29T05:32:06.025Z,101440.22
2023-01-29T05:34:38.836Z,101445.56
2023-01-29T05:37:07.311Z,101446.50
2023-01-29T05:39:35.669Z,101438.06
2023-01-29T05:42:04.206Z,101439.09
2023-01-29T05:44:32.650Z,101444.53
2023-01-29T05:47:03.528Z,101443.75
2023-01-29T05:49:31.817Z,101447.47
2023-01-29T05:52:00.511Z,101436.09
2023-01-29T05:54:29.222Z,101446.72
2023-01-29T05:56:57.540Z,101445.09
2023-01-29T05:59:26.186Z,101434.66
2023-01-29T06:01:54.573Z,101439.94
2023-01-29T06:04:22.827Z,101437.38
2023-01-29T06:06:51.120Z,101433.91
2023-01-29T06:09:19.773Z,101438.34
2023-01-29T06:11:48.176Z,101440.13
2023-01-29T06:14:16.452Z,101439.34
2023-01-29T06:16:44.735Z,101438.56
2023-01-29T06:19:13.100Z,101437.75
2023-01-29T06:21:41.350Z,101450.34
2023-01-29T06:24:10.238Z,101457.47
2023-01-29T06:26:41.619Z,101447.78
2023-01-29T06:29:09.853Z,101440.88
2023-01-29T06:31:39.531Z,101440.88
2023-01-29T06:34:13.177Z,101430.28
2023-01-29T06:36:42.705Z,101425.97
2023-01-29T06:39:11.235Z,101431.28
2023-01-29T06:41:39.678Z,101422.44
2023-01-29T06:44:07.954Z,101420.63
2023-01-29T06:46:37.335Z,101424.13
2023-01-29T06:49:10.615Z,101422.44
2023-01-29T06:51:41.202Z,101422.56
2023-01-29T06:54:11.682Z,101423.53
2023-01-29T06:56:39.948Z,101421.03
2023-01-29T06:59:08.282Z,101420.16
2023-01-29T07:01:46.301Z,101411.44
2023-01-29T07:04:14.798Z,101420.22
2023-01-29T07:06:43.161Z,101412.41
2023-01-29T07:09:15.242Z,101414.28
2023-01-29T07:11:43.760Z,101413.47
2023-01-29T07:14:12.176Z,101410.03
2023-01-29T07:16:40.587Z,101410.03
2023-01-29T07:19:08.928Z,101409.91
2023-01-29T07:21:38.088Z,101404.22
2023-01-29T07:24:06.631Z,101403.22
2023-01-29T07:26:34.991Z,101398.63
2023-01-29T07:29:05.339Z,101398.88
2023-01-29T07:31:33.758Z,101393.56
2023-01-29T07:34:05.132Z,101391.91
2023-01-29T07:36:38.209Z,101389.50
2023-01-29T07:39:09.019Z,101380.25
2023-01-29T07:41:37.371Z,101370.09
2023-01-29T07:44:05.870Z,101362.41
2023-01-29T07:46:34.236Z,101361.84
2023-01-29T07:49:02.580Z,101362.19
2023-01-29T07:51:31.088Z,101355.94
2023-01-29T07:53:59.391Z,101360.63
2023-01-29T07:56:27.660Z,101354.81
2023-01-29T07:58:55.921Z,101346.31
2023-01-29T08:01:27.177Z,101356.97
2023-01-29T08:03:55.466Z,101351.69
2023-01-29T08:06:26.677Z,101351.81
2023-01-29T08:08:56.655Z,101352.53
2023-01-29T08:11:27.850Z,101351.69
2023-01-29T08:13:57.526Z,101342.31
2023-01-29T08:16:25.971Z,101340.75
2023-01-29T08:18:54.296Z,101339.84
2023-01-29T08:21:22.645Z,101330.91
2023-01-29T08:23:50.987Z,101332.78
2023-01-29T08:26:19.271Z,101322.50
2023-01-29T08:28:47.567Z,101320.78
2023-01-29T08:31:17.539Z,101320.78
2023-01-29T08:33:45.783Z,101319.13
2023-01-29T08:36:14.648Z,101320.19
2023-01-29T08:38:43.192Z,101318.50
2023-01-29T08:41:11.502Z,101319.03
2023-01-29T08:43:39.869Z,101314.31
2023-01-29T08:46:09.249Z,101325.25
2023-01-29T08:48:37.637Z,101319.53
2023-01-29T08:51:06.276Z,101320.06
2023-01-29T08:53:34.810Z,101312.69
2023-01-29T08:56:03.318Z,101325.41
2023-01-29T08:58:33.415Z,101311.38
2023-01-29T09:01:12.799Z,101323.06
2023-01-29T09:03:45.535Z,101315.41
2023-01-29T09:06:15.888Z,101320.41
2023-01-29T09:08:46.621Z,101316.34
2023-01-29T09:11:14.984Z,101318.72
2023-01-29T09:13:43.256Z,101317.00
2023-01-29T09:16:12.152Z,101309.88
2023-01-29T09:18:40.419Z,101306.69
2023-01-29T09:21:11.140Z,101300.59
2023-01-29T09:23:40.035Z,101309.34
2023-01-29T09:26:09.949Z,101307.47
2023-01-29T09:28:38.332Z,101292.28
2023-01-29T09:31:10.236Z,101282.38
2023-01-29T09:33:38.953Z,101282.38
2023-01-29T09:36:07.854Z,101269.75
2023-01-29T09:38:36.130Z,101261.09
2023-01-29T09:41:22.696Z,101258.22
2023-01-29T09:43:59.144Z,101253.72
2023-01-29T09:46:42.631Z,101264.59
2023-01-29T09:49:22.263Z,101260.78
2023-01-29T09:52:21.753Z,101258.94
2023-01-29T09:55:03.663Z,101262.44
2023-01-29T09:57:43.110Z,101251.22
2023-01-29T10:01:37.215Z,101258.03
2023-01-29T10:04:39.635Z,101266.06
2023-01-29T10:07:26.084Z,101259.84
2023-01-29T10:10:35.162Z,101259.44
2023-01-29T10:13:21.834Z,101256.50
2023-01-29T10:16:19.477Z,101266.22
2023-01-29T10:19:18.083Z,101268.34
2023-01-29T10:21:54.238Z,101264.91
2023-01-29T10:24:49.507Z,101259.88
2023-01-29T10:27:19.444Z,101249.28
2023-01-29T10:29:52.354Z,101257.59
2023-01-29T10:32:24.727Z,101263.72
2023-01-29T10:34:55.046Z,101255.34
2023-01-29T10:37:43.374Z,101240.16
2023-01-29T10:40:25.028Z,101234.59
2023-01-29T10:43:04.877Z,101231.63
2023-01-29T10:46:05.303Z,101246.88
2023-01-29T10:48:39.734Z,101239.78
2023-01-29T10:51:20.067Z,101238.06
2023-01-29T10:54:33.778Z,101239.06
2023-01-29T10:57:08.304Z,101238.16
2023-01-29T10:59:36.571Z,101235.34
2023-01-29T11:02:20.526Z,101220.72
2023-01-29T11:04:49.136Z,101219.56
2023-01-29T11:07:20.957Z,101205.72
2023-01-29T11:10:09.222Z,101205.94
2023-01-29T11:12:39.671Z,101204.16
2023-01-29T11:15:40.159Z,101200.88
2023-01-29T11:18:17.217Z,101200.59
2023-01-29T11:20:47.248Z,101197.78
2023-01-29T11:23:41.743Z,101204.66
2023-01-29T11:26:13.847Z,101203.06
2023-01-29T11:28:47.220Z,101201.91
2023-01-29T11:31:36.762Z,101196.06
2023-01-29T11:34:18.178Z,101197.28
2023-01-29T11:36:47.692Z,101191.31
2023-01-29T11:39:18.726Z,101199.19
2023-01-29T11:42:00.328Z,101193.31
2023-01-29T11:44:37.919Z,101200.16
2023-01-29T11:47:30.315Z,101201.09
2023-01-29T11:50:02.608Z,101194.88
2023-01-29T11:52:41.814Z,101200.16
2023-01-29T11:55:48.243Z,101195.34
2023-01-29T11:58:27.052Z,101189.50
2023-01-29T12:01:04.853Z,101184.84
2023-01-29T12:03:47.512Z,101198.31
2023-01-29T12:06:24.450Z,101192.06
2023-01-29T12:09:02.844Z,101193.88
2023-01-29T12:11:43.245Z,101197.53
2023-01-29T12:14:34.329Z,101194.66
2023-01-29T12:17:05.984Z,101190.28
2023-01-29T12:19:36.924Z,101183.72
2023-01-29T12:22:13.497Z,101167.53
2023-01-29T12:25:05.010Z,101172.44
2023-01-29T12:27:37.131Z,101171.78
2023-01-29T12:30:41.793Z,101172.59
2023-01-29T12:33:25.544Z,101165.50
2023-01-29T12:36:09.299Z,101163.56
2023-01-29T12:38:39.264Z,101158.28
2023-01-29T12:41:26.573Z,101157.16
2023-01-29T12:44:02.337Z,101147.81
2023-01-29T12:46:35.905Z,101150.34
2023-01-29T12:49:08.693Z,101144.88
2023-01-29T12:51:43.916Z,101140.44
2023-01-29T12:54:32.906Z,101144.00
2023-01-29T12:57:06.791Z,101150.25
2023-01-29T12:59:44.083Z,101130.00
2023-01-29T13:02:27.769Z,101127.44
2023-01-29T13:05:14.616Z,101135.16
2023-01-29T13:07:48.689Z,101130.69
2023-01-29T13:10:22.266Z,101121.25
2023-01-29T13:13:03.420Z,101116.69
2023-01-29T13:15:37.669Z,101119.97
2023-01-29T13:18:33.128Z,101122.22
2023-01-29T13:21:02.311Z,101107.97
2023-01-29T13:23:43.880Z,101103.59
2023-01-29T13:26:14.192Z,101100.03
2023-01-29T13:28:47.017Z,101098.53
2023-01-29T13:31:32.408Z,101101.72
2023-01-29T13:34:16.055Z,101094.75
2023-01-29T13:36:50.159Z,101102.81
2023-01-29T13:39:27.246Z,101108.44
2023-01-29T13:41:57.258Z,101108.03
2023-01-29T13:44:41.586Z,101096.81
2023-01-29T13:47:21.705Z,101095.41
2023-01-29T13:50:03.841Z,101101.88
2023-01-29T13:52:57.238Z,101098.38
2023-01-29T13:55:35.219Z,101091.53
2023-01-29T13:58:17.103Z,101086.63
2023-01-29T14:00:45.351Z,101084.16
2023-01-29T14:03:13.574Z,101089.75
2023-01-29T14:05:47.326Z,101088.28
2023-01-29T14:08:18.189Z,101086.00
2023-01-29T14:10:46.520Z,101086.47
2023-01-29T14:13:20.327Z,101075.97
2023-01-29T14:16:27.428Z,101092.22
2023-01-29T14:19:01.161Z,101087.00
2023-01-29T14:21:35.776Z,101083.88
2023-01-29T14:24:18.933Z,101087.69
2023-01-29T14:26:50.650Z,101095.75
2023-01-29T14:29:34.867Z,101104.84
2023-01-29T14:32:28.772Z,101101.47
2023-01-29T14:35:19.806Z,101099.72
2023-01-29T14:37:59.190Z,101097.81
2023-01-29T14:40:30.643Z,101090.41
2023-01-29T14:43:09.157Z,101095.53
2023-01-29T14:45:45.760Z,101092.66
2023-01-29T14:48:14.031Z,101090.72
2023-01-29T14:50:46.996Z,101083.59
2023-01-29T14:53:27.214Z,101085.16
2023-01-29T14:56:40.777Z,101082.28
2023-01-29T14:59:20.647Z,101082.41
2023-01-29T15:01:55.979Z,101083.41
2023-01-29T15:04:38.094Z,101077.78
2023-01-29T15:07:14.874Z,101085.31
2023-01-29T15:10:36.704Z,101089.25
2023-01-29T15:13:16.466Z,101096.59
2023-01-29T15:16:18.125Z,101086.81
2023-01-29T15:18:49.043Z,101088.53
2023-01-29T15:21:19.563Z,101086.72
2023-01-29T15:23:51.386Z,101089.28
2023-01-29T15:26:27.085Z,101081.88
2023-01-29T15:29:03.272Z,101083.28
2023-01-29T15:31:37.956Z,101085.78
2023-01-29T15:34:12.811Z,101086.69
2023-01-29T15:36:51.380Z,101088.50
2023-01-29T15:39:24.888Z,101086.69
2023-01-29T15:42:25.742Z,101089.06
2023-01-29T15:44:55.904Z,101085.97
2023-01-29T15:50:43.476Z,101090.44
2023-01-29T15:53:20.724Z,101097.22
2023-01-29T15:55:52.669Z,101094.09
2023-01-29T15:58:29.792Z,101102.28
2023-01-29T16:01:05.515Z,101097.59
2023-01-29T16:03:35.547Z,101099.88
2023-01-29T16:06:04.429Z,101100.16
2023-01-29T16:08:34.220Z,101104.06
2023-01-29T16:11:05.360Z,101106.06
2023-01-29T16:13:36.916Z,101099.28
2023-01-29T16:16:06.277Z,101109.41
2023-01-29T16:18:40.876Z,101105.25
2023-01-29T16:21:16.776Z,101104.66
2023-01-29T16:23:57.501Z,101098.63
2023-01-29T16:26:32.980Z,101098.69
2023-01-29T16:29:09.218Z,101099.81
2023-01-29T16:31:40.397Z,101096.63
2023-01-29T16:34:15.962Z,101086.69
2023-01-29T16:36:49.487Z,101094.72
2023-01-29T16:39:37.663Z,101099.19
2023-01-29T16:42:18.108Z,101091.31
2023-01-29T16:44:56.848Z,101091.41
2023-01-29T16:47:28.410Z,101098.25
2023-01-29T16:50:05.608Z,101102.84
2023-01-29T16:52:36.925Z,101105.75
2023-01-29T16:55:13.810Z,101108.66
2023-01-29T16:57:43.353Z,101108.91
2023-01-29T17:00:31.309Z,101105.31
2023-01-29T17:03:08.218Z,101108.03
2023-01-29T17:05:39.041Z,101108.06
2023-01-29T17:08:08.533Z,101108.28
2023-01-29T17:10:37.036Z,101112.09
2023-01-29T17:13:07.574Z,101104.31
2023-01-29T17:15:47.828Z,101112.47
2023-01-29T17:18:21.780Z,101110.88
2023-01-29T17:20:51.313Z,101117.56
2023-01-29T17:23:19.881Z,101109.59
2023-01-29T17:25:49.291Z,101107.03
2023-01-29T17:28:19.057Z,101116.19
2023-01-29T17:31:00.345Z,101117.13
2023-01-29T17:33:33.584Z,101107.53
2023-01-29T17:36:02.381Z,101111.91
2023-01-29T17:38:30.701Z,101121.31
2023-01-29T17:41:07.039Z,101112.56
2023-01-29T17:43:38.821Z,101119.78
2023-01-29T17:46:07.167Z,101119.97
2023-01-29T17:48:35.572Z,101125.19
2023-01-29T17:51:05.996Z,101130.72
2023-01-29T17:53:45.495Z,101132.97
2023-01-29T17:56:29.765Z,101136.47
2023-01-29T17:58:58.029Z,101131.63
2023-01-29T18:01:26.387Z,101133.72
2023-01-29T18:03:54.807Z,101134.97
2023-01-29T18:06:30.066Z,101143.97
2023-01-29T18:08:59.353Z,101139.59
2023-01-29T18:11:28.952Z,101147.56
2023-01-29T18:13:57.808Z,101148.59
2023-01-29T18:16:27.011Z,101145.38
2023-01-29T18:18:55.347Z,101147.34
2023-01-29T18:21:23.660Z,101143.19
2023-01-29T18:23:51.931Z,101155.69
2023-01-29T18:26:20.376Z,101157.06
2023-01-29T18:28:48.745Z,101152.13
2023-01-29T18:31:17.069Z,101158.44
2023-01-29T18:33:45.474Z,101151.78
2023-01-29T18:36:13.985Z,101156.41
2023-01-29T18:38:44.968Z,101157.63
2023-01-29T18:41:13.460Z,101155.25
2023-01-29T18:43:42.877Z,101162.41
2023-01-29T18:46:11.800Z,101164.59
2023-01-29T18:48:41.730Z,101170.41
2023-01-29T18:51:10.954Z,101164.59
2023-01-29T18:53:39.348Z,101161.25
2023-01-29T18:56:08.280Z,101161.34
2023-01-29T18:58:37.821Z,101164.78
2023-01-29T19:01:10.337Z,101155.00
2023-01-29T19:03:42.738Z,101161.41
2023-01-29T19:06:12.926Z,101158.94
2023-01-29T19:08:42.068Z,101160.97
2023-01-29T19:11:13.226Z,101161.94
2023-01-29T19:13:43.412Z,101149.59
2023-01-29T19:16:14.355Z,101154.16
2023-01-29T19:18:43.270Z,101156.03
2023-01-29T19:21:14.735Z,101154.25
2023-01-29T19:23:43.613Z,101155.34
2023-01-29T19:26:12.810Z,101152.78
2023-01-29T19:28:41.935Z,101151.72
2023-01-29T19:31:10.345Z,101156.91
2023-01-29T19:33:40.087Z,101150.72
2023-01-29T19:36:08.945Z,101151.50
2023-01-29T19:38:45.526Z,101146.19
2023-01-29T19:41:16.857Z,101140.72
2023-01-29T19:43:46.694Z,101142.41
2023-01-29T19:46:15.580Z,101140.44
2023-01-29T19:48:46.753Z,101129.84
2023-01-29T19:51:15.280Z,101129.94
2023-01-29T19:53:46.565Z,101131.66
2023-01-29T19:56:20.674Z,101127.94
2023-01-29T19:58:49.315Z,101130.50
2023-01-29T20:01:19.934Z,101123.34
2023-01-29T20:03:50.199Z,101124.00
2023-01-29T20:06:21.043Z,101120.59
2023-01-29T20:08:49.589Z,101111.34
2023-01-29T20:11:20.407Z,101124.00
2023-01-29T20:13:51.206Z,101133.69
2023-01-29T20:16:20.407Z,101117.19
2023-01-29T20:18:48.825Z,101126.06
2023-01-29T20:21:23.271Z,101125.16
2023-01-29T20:23:52.875Z,101126.75
2023-01-29T20:26:22.721Z,101122.31
2023-01-29T20:28:51.278Z,101130.19
2023-01-29T20:31:19.657Z,101123.91
2023-01-29T20:33:47.982Z,101125.06
2023-01-29T20:36:16.374Z,101129.56
2023-01-29T20:38:44.781Z,101135.69
2023-01-29T20:41:20.364Z,101128.56
2023-01-29T20:43:50.643Z,101129.50
2023-01-29T20:46:19.461Z,101133.03
2023-01-29T20:48:47.973Z,101131.38
2023-01-29T20:51:20.066Z,101138.47
2023-01-29T20:53:49.025Z,101129.66
2023-01-29T20:56:18.377Z,101133.78
2023-01-29T20:59:00.581Z,101138.72
2023-01-29T21:01:33.438Z,101135.13
2023-01-29T21:04:09.371Z,101124.00
2023-01-29T21:06:50.233Z,101126.41
2023-01-29T21:09:18.626Z,101135.63
2023-01-29T21:11:49.953Z,101138.03
2023-01-29T21:14:18.230Z,101124.69
2023-01-29T21:16:49.643Z,101120.31
2023-01-29T21:19:17.674Z,101120.91
2023-01-29T21:21:50.697Z,101117.88
2023-01-29T21:24:19.745Z,101116.41
2023-01-29T21:26:48.751Z,101117.38
2023-01-29T21:34:49.407Z,101115.66
2023-01-29T21:37:18.805Z,101112.13
2023-01-29T21:39:47.119Z,101101.59
2023-01-29T21:48:18.302Z,101103.50
2023-01-29T21:50:49.503Z,101100.00
2023-01-29T21:53:19.092Z,101099.59
2023-01-29T21:55:47.965Z,101093.69
2023-01-29T21:58:16.599Z,101099.44
2023-01-29T22:03:22.239Z,101087.22
2023-01-29T22:05:51.022Z,101090.47
2023-01-29T22:08:19.398Z,101092.03
2023-01-29T22:10:48.034Z,101097.91
2023-01-29T22:13:17.267Z,101093.91
2023-01-29T22:15:46.117Z,101095.44
2023-01-29T22:18:15.927Z,101103.13
2023-01-29T22:20:44.898Z,101093.88
2023-01-29T22:23:13.643Z,101102.59
2023-01-29T22:25:44.815Z,101105.88
2023-01-29T22:28:27.724Z,101101.31
2023-01-29T22:30:56.041Z,101113.66
2023-01-29T22:33:25.047Z,101114.75
2023-01-29T22:35:56.830Z,101120.34
2023-01-29T22:38:25.571Z,101123.91
2023-01-29T22:43:25.304Z,101129.56
2023-01-29T22:45:53.804Z,101129.47
2023-01-29T22:48:24.508Z,101141.91
2023-01-29T22:51:14.689Z,101132.75
2023-01-29T22:54:02.197Z,101136.94
2023-01-29T22:56:32.057Z,101141.09
2023-01-29T22:59:01.860Z,101147.28
2023-01-29T23:01:33.157Z,101146.69
2023-01-29T23:04:01.578Z,101152.88
2023-01-29T23:06:30.473Z,101159.59
2023-01-29T23:08:58.750Z,101162.22
2023-01-29T23:14:21.427Z,101182.06
2023-01-29T23:16:49.861Z,101178.78
2023-01-29T23:19:18.563Z,101187.78
2023-01-29T23:21:47.011Z,101186.22
2023-01-29T23:24:18.324Z,101203.34
2023-01-29T23:27:11.340Z,101203.44
2023-01-29T23:29:39.906Z,101210.28
2023-01-29T23:32:11.314Z,101211.63
2023-01-29T23:34:39.925Z,101213.59
2023-01-29T23:37:08.712Z,101216.94
2023-01-29T23:39:37.186Z,101214.53
2023-01-29T23:42:06.071Z,101215.53
2023-01-29T23:44:34.808Z,101212.31
2023-01-29T23:47:03.168Z,101211.94
2023-01-29T23:49:50.950Z,101216.63
2023-01-29T23:52:22.525Z,101220.28
2023-01-29T23:54:50.804Z,101215.91
2023-01-29T23:57:19.219Z,101211.97
2023-01-29T23:59:49.140Z,101208.47
